createdAt,value
2023-01-30T00:01:19.281Z,98503.06
2023-01-30T00:03:46.200Z,98490.00
2023-01-30T00:06:13.519Z,98490.00
2023-01-30T00:08:41.230Z,98478.75
2023-01-30T00:11:10.451Z,98467.13
2023-01-30T00:13:37.840Z,98461.81
2023-01-30T00:16:06.075Z,98464.47
2023-01-30T00:18:32.818Z,98457.53
2023-01-30T00:21:03.585Z,98443.25
2023-01-30T00:23:32.429Z,98440.59
2023-01-30T00:26:00.350Z,98429.56
2023-01-30T00:28:27.505Z,98420.41
2023-01-30T00:30:55.940Z,98423.41
2023-01-30T00:33:24.617Z,98414.44
2023-01-30T00:35:52.935Z,98414.44
2023-01-30T00:38:20.516Z,98402.19
2023-01-30T00:40:49.187Z,98410.13
2023-01-30T00:43:37.184Z,98407.47
2023-01-30T00:46:28.970Z,98407.47
2023-01-30T00:48:55.729Z,98410.13
2023-01-30T00:51:22.653Z,98402.19
2023-01-30T00:53:49.478Z,98398.88
2023-01-30T00:56:16.592Z,98403.38
2023-01-30T00:58:43.228Z,98386.66
2023-01-30T01:01:10.107Z,98391.94
2023-01-30T01:03:36.777Z,98379.69
2023-01-30T01:06:04.406Z,98385.63
2023-01-30T01:08:31.106Z,98387.63
2023-01-30T01:10:58.594Z,98380.53
2023-01-30T01:13:25.334Z,98363.97
2023-01-30T01:15:52.424Z,98362.13
2023-01-30T01:18:19.075Z,98357.84
2023-01-30T01:20:46.758Z,98347.25
2023-01-30T01:23:13.530Z,98349.91
2023-01-30T01:25:40.428Z,98336.81
2023-01-30T01:28:07.101Z,98333.16
2023-01-30T01:30:34.755Z,98327.03
2023-01-30T01:33:01.415Z,98321.72
2023-01-30T01:35:28.363Z,98324.38
2023-01-30T01:37:55.749Z,98326.22
2023-01-30T01:40:42.084Z,98328.03
2023-01-30T01:43:31.438Z,98319.25
2023-01-30T01:46:03.993Z,98312.13
2023-01-30T01:48:44.961Z,98314.97
2023-01-30T01:51:19.424Z,98299.22
2023-01-30T01:53:54.814Z,98297.22
2023-01-30T01:56:22.695Z,98293.91
2023-01-30T01:59:01.668Z,98275.75
2023-01-30T02:01:30.056Z,98267.78
2023-01-30T02:04:01.737Z,98266.13
2023-01-30T02:06:30.041Z,98260.00
2023-01-30T02:09:02.092Z,98253.91
2023-01-30T02:11:39.228Z,98243.28
2023-01-30T02:14:07.037Z,98238.97
2023-01-30T02:16:37.029Z,98235.03
2023-01-30T02:19:39.067Z,98231.41
2023-01-30T02:22:22.383Z,98226.09
2023-01-30T02:25:15.088Z,98218.31
2023-01-30T02:27:54.343Z,98208.53
2023-01-30T02:30:32.787Z,98211.41
2023-01-30T02:33:24.510Z,98206.91
2023-01-30T02:36:04.241Z,98199.97
2023-01-30T02:38:56.689Z,98199.13
2023-01-30T02:41:36.678Z,98195.50
2023-01-30T02:44:27.277Z,98187.72
2023-01-30T02:46:56.771Z,98179.13
2023-01-30T02:49:32.280Z,98166.88
2023-01-30T02:52:01.421Z,98156.28
2023-01-30T02:54:28.406Z,98161.59
2023-01-30T02:56:58.852Z,98152.78
2023-01-30T02:59:41.519Z,98143.03
2023-01-30T03:02:11.292Z,98150.13
2023-01-30T03:05:28.857Z,98168.53
2023-01-30T03:07:55.472Z,98159.13
2023-01-30T03:10:32.290Z,98162.75
2023-01-30T03:13:08.512Z,98147.06
2023-01-30T03:15:42.191Z,98146.03
2023-01-30T03:18:09.603Z,98123.22
2023-01-30T03:20:39.765Z,98139.09
2023-01-30T03:23:07.924Z,98141.13
2023-01-30T03:25:37.836Z,98141.94
2023-01-30T03:28:05.997Z,98130.53
2023-01-30T03:30:33.022Z,98140.31
2023-01-30T03:32:59.664Z,98135.00
2023-01-30T03:35:29.210Z,98132.53
2023-01-30T03:37:58.412Z,98127.25
2023-01-30T03:40:25.597Z,98128.88
2023-01-30T03:42:52.270Z,98127.25
2023-01-30T03:45:19.457Z,98118.66
2023-01-30T03:47:46.308Z,98106.03
2023-01-30T03:50:13.551Z,98112.31
2023-01-30T03:52:40.311Z,98105.41
2023-01-30T03:55:07.690Z,98098.25
2023-01-30T03:57:34.756Z,98083.16
2023-01-30T04:00:01.970Z,98075.44
2023-01-30T04:02:28.662Z,98088.47
2023-01-30T04:04:55.704Z,98075.22
2023-01-30T04:07:22.432Z,98067.47
2023-01-30T04:09:49.323Z,98058.69
2023-01-30T04:12:16.012Z,98060.34
2023-01-30T04:14:42.938Z,98043.81
2023-01-30T04:17:09.589Z,98050.13
2023-01-30T04:19:36.508Z,98036.88
2023-01-30T04:22:03.226Z,98041.34
2023-01-30T04:24:30.155Z,98023.63
2023-01-30T04:26:56.859Z,98028.94
2023-01-30T04:29:23.746Z,98018.31
2023-01-30T04:31:50.974Z,98022.78
2023-01-30T04:34:17.907Z,98027.28
2023-01-30T04:36:44.562Z,98021.97
2023-01-30T04:39:11.477Z,98020.34
2023-01-30T04:41:38.159Z,98024.00
2023-01-30T04:44:05.120Z,98015.84
2023-01-30T04:46:31.779Z,98019.31
2023-01-30T04:48:58.734Z,98021.97
2023-01-30T04:51:25.473Z,98022.38
2023-01-30T04:53:52.426Z,98019.50
2023-01-30T04:56:19.748Z,98018.69
2023-01-30T04:58:46.609Z,98007.28
2023-01-30T05:01:20.899Z,98013.38
2023-01-30T05:03:52.807Z,97995.88
2023-01-30T05:06:20.470Z,97990.56
2023-01-30T05:08:54.737Z,97986.41
2023-01-30T05:11:23.781Z,97972.16
2023-01-30T05:13:51.098Z,97976.66
2023-01-30T05:16:18.702Z,97979.31
2023-01-30T05:18:45.867Z,97975.81
2023-01-30T05:21:15.423Z,97974.00
2023-01-30T05:23:42.888Z,97975.00
2023-01-30T05:26:10.219Z,97975.00
2023-01-30T05:28:37.174Z,97957.47
2023-01-30T05:31:12.760Z,97955.44
2023-01-30T05:33:41.421Z,97960.47
2023-01-30T05:36:13.813Z,97953.16
2023-01-30T05:38:42.920Z,97946.88
2023-01-30T05:41:11.221Z,97935.81
2023-01-30T05:43:38.249Z,97949.69
2023-01-30T05:46:06.050Z,97961.09
2023-01-30T05:48:34.017Z,97933.81
2023-01-30T05:51:00.708Z,97926.66
2023-01-30T05:53:30.402Z,97908.50
2023-01-30T05:55:58.598Z,97897.91
2023-01-30T05:58:28.045Z,97898.72
2023-01-30T06:00:59.475Z,97896.25
2023-01-30T06:03:26.400Z,97887.31
2023-01-30T06:05:53.047Z,97890.97
2023-01-30T06:08:20.015Z,97890.97
2023-01-30T06:10:46.750Z,97877.94
2023-01-30T06:13:13.634Z,97877.09
2023-01-30T06:15:40.334Z,97880.34
2023-01-30T06:18:07.860Z,97888.53
2023-01-30T06:20:34.530Z,97881.38
2023-01-30T06:23:01.592Z,97858.34
2023-01-30T06:25:28.375Z,97855.06
2023-01-30T06:27:55.277Z,97855.88
2023-01-30T06:30:21.986Z,97859.56
2023-01-30T06:32:52.130Z,97875.28
2023-01-30T06:35:21.496Z,97862.84
2023-01-30T06:37:48.478Z,97859.56
2023-01-30T06:40:15.628Z,97855.88
2023-01-30T06:42:49.170Z,97862.84
2023-01-30T06:45:18.026Z,97859.56
2023-01-30T06:47:54.674Z,97855.06
2023-01-30T06:50:25.627Z,97853.06
2023-01-30T06:52:54.113Z,97841.00
2023-01-30T06:55:23.795Z,97842.63
2023-01-30T06:57:51.113Z,97839.19
2023-01-30T07:00:20.024Z,97842.03
2023-01-30T07:02:47.284Z,97837.34
2023-01-30T07:05:14.277Z,97838.38
2023-01-30T07:07:41.633Z,97849.16
2023-01-30T07:10:09.405Z,97837.56
2023-01-30T07:12:36.968Z,97834.09
2023-01-30T07:15:05.457Z,97825.31
2023-01-30T07:17:33.643Z,97819.19
2023-01-30T07:20:00.377Z,97807.59
2023-01-30T07:22:27.335Z,97794.72
2023-01-30T07:24:54.047Z,97797.38
2023-01-30T07:27:21.003Z,97793.09
2023-01-30T07:29:47.762Z,97790.44
2023-01-30T07:32:19.101Z,97793.91
2023-01-30T07:34:46.719Z,97775.56
2023-01-30T07:37:13.946Z,97786.16
2023-01-30T07:39:41.007Z,97779.22
2023-01-30T07:42:08.389Z,97786.16
2023-01-30T07:44:35.850Z,97791.44
2023-01-30T07:47:03.020Z,97784.53
2023-01-30T07:49:30.079Z,97781.88
2023-01-30T07:51:57.955Z,97781.25
2023-01-30T07:54:24.712Z,97788.16
2023-01-30T07:56:51.648Z,97775.94
2023-01-30T07:59:18.457Z,97770.66
2023-01-30T08:01:45.329Z,97776.75
2023-01-30T08:04:12.135Z,97761.69
2023-01-30T08:06:39.641Z,97766.97
2023-01-30T08:09:07.390Z,97772.50
2023-01-30T08:11:34.994Z,97779.59
2023-01-30T08:14:02.430Z,97784.09
2023-01-30T08:16:32.153Z,97784.09
2023-01-30T08:18:59.080Z,97783.28
2023-01-30T08:21:26.282Z,97762.09
2023-01-30T08:23:52.989Z,97744.53
2023-01-30T08:26:19.986Z,97754.13
2023-01-30T08:28:48.032Z,97746.19
2023-01-30T08:31:16.465Z,97740.88
2023-01-30T08:33:43.667Z,97747.19
2023-01-30T08:36:10.661Z,97733.94
2023-01-30T08:38:37.402Z,97720.06
2023-01-30T08:41:06.688Z,97729.03
2023-01-30T08:43:34.430Z,97739.63
2023-01-30T08:46:01.551Z,97734.34
2023-01-30T08:48:36.719Z,97739.63
2023-01-30T08:51:03.979Z,97737.00
2023-01-30T08:53:30.642Z,97738.00
2023-01-30T08:55:57.612Z,97732.91
2023-01-30T08:58:24.492Z,97736.38
2023-01-30T09:00:51.546Z,97741.66
2023-01-30T09:03:18.711Z,97740.03
2023-01-30T09:05:45.987Z,97731.06
2023-01-30T09:08:12.963Z,97727.78
2023-01-30T09:10:40.625Z,97723.31
2023-01-30T09:13:10.009Z,97711.09
2023-01-30T09:15:37.097Z,97717.19
2023-01-30T09:18:05.038Z,97709.44
2023-01-30T09:20:32.478Z,97710.28
2023-01-30T09:22:59.915Z,97707.00
2023-01-30T09:25:27.158Z,97698.44
2023-01-30T09:27:53.934Z,97694.34
2023-01-30T09:30:21.843Z,97695.16
2023-01-30T09:32:49.044Z,97693.50
2023-01-30T09:35:16.178Z,97676.00
2023-01-30T09:37:50.573Z,97686.59
2023-01-30T09:40:22.281Z,97674.34
2023-01-30T09:43:04.807Z,97674.56
2023-01-30T09:46:03.743Z,97672.72
2023-01-30T09:48:53.666Z,97654.19
2023-01-30T09:52:17.113Z,97647.06
2023-01-30T09:54:45.922Z,97641.75
2023-01-30T09:57:24.865Z,97642.56
2023-01-30T10:00:21.133Z,97627.31
2023-01-30T10:03:04.886Z,97620.22
2023-01-30T10:05:44.093Z,97628.97
2023-01-30T10:08:24.650Z,97627.94
2023-01-30T10:11:09.629Z,97617.97
2023-01-30T10:13:58.569Z,97614.09
2023-01-30T10:16:33.692Z,97615.75
2023-01-30T10:19:09.558Z,97614.53
2023-01-30T10:22:14.095Z,97605.38
2023-01-30T10:25:00.713Z,97604.38
2023-01-30T10:27:30.530Z,97603.16
2023-01-30T10:30:02.203Z,97597.84
2023-01-30T10:32:52.784Z,97585.22
2023-01-30T10:35:27.102Z,97583.81
2023-01-30T10:38:12.923Z,97581.56
2023-01-30T10:40:44.134Z,97572.41
2023-01-30T10:43:19.605Z,97566.13
2023-01-30T10:45:52.902Z,97566.31
2023-01-30T10:48:45.514Z,97553.06
2023-01-30T10:51:38.297Z,97549.19
2023-01-30T10:54:14.901Z,97543.34
2023-01-30T10:57:03.661Z,97544.56
2023-01-30T10:59:30.291Z,97544.56
2023-01-30T11:02:06.926Z,97545.78
2023-01-30T11:04:43.612Z,97557.22
2023-01-30T11:07:13.224Z,97561.69
2023-01-30T11:09:42.370Z,97553.34
2023-01-30T11:12:09.570Z,97545.41
2023-01-30T11:15:05.553Z,97544.19
2023-01-30T11:17:32.515Z,97538.69
2023-01-30T11:20:15.197Z,97519.72
2023-01-30T11:22:49.438Z,97523.78
2023-01-30T11:25:19.825Z,97510.16
2023-01-30T11:27:56.300Z,97517.69
2023-01-30T11:30:28.341Z,97511.97
2023-01-30T11:33:10.498Z,97506.28
2023-01-30T11:35:43.986Z,97507.09
2023-01-30T11:38:21.330Z,97496.47
2023-01-30T11:40:48.104Z,97492.00
2023-01-30T11:43:15.541Z,97479.78
2023-01-30T11:45:46.114Z,97478.34
2023-01-30T11:48:33.934Z,97473.03
2023-01-30T11:51:10.139Z,97476.50
2023-01-30T11:53:46.737Z,97459.78
2023-01-30T11:56:34.951Z,97459.38
2023-01-30T11:59:07.983Z,97452.44
2023-01-30T12:01:37.089Z,97443.66
2023-01-30T12:04:08.324Z,97454.06
2023-01-30T12:06:38.128Z,97448.75
2023-01-30T12:09:06.121Z,97438.78
2023-01-30T12:11:45.218Z,97449.97
2023-01-30T12:14:34.219Z,97432.47
2023-01-30T12:17:21.452Z,97436.13
2023-01-30T12:20:12.063Z,97440.59
2023-01-30T12:22:47.869Z,97439.56
2023-01-30T12:25:22.142Z,97437.75
2023-01-30T12:30:29.404Z,97420.81
2023-01-30T12:36:01.170Z,97433.47
2023-01-30T12:38:58.042Z,97422.84
2023-01-30T12:41:38.581Z,97420.22
2023-01-30T12:44:16.657Z,97413.91
2023-01-30T12:47:04.750Z,97420.22
2023-01-30T12:49:45.325Z,97410.41
2023-01-30T12:52:29.952Z,97414.91
2023-01-30T12:54:59.471Z,97414.28
2023-01-30T12:57:49.390Z,97414.09
2023-01-30T13:00:42.749Z,97400.66
2023-01-30T13:03:26.792Z,97408.00
2023-01-30T13:06:18.823Z,97402.69
2023-01-30T13:08:59.229Z,97404.31
2023-01-30T13:11:34.887Z,97414.91
2023-01-30T13:14:13.449Z,97408.00
2023-01-30T13:17:40.004Z,97394.94
2023-01-30T13:20:14.733Z,97396.78
2023-01-30T13:23:20.141Z,97399.00
2023-01-30T13:25:58.728Z,97392.09
2023-01-30T13:28:29.655Z,97391.47
2023-01-30T13:30:58.345Z,97394.13
2023-01-30T13:33:35.005Z,97385.13
2023-01-30T13:36:39.208Z,97390.44
2023-01-30T13:39:13.161Z,97389.63
2023-01-30T13:41:45.792Z,97376.56
2023-01-30T13:44:28.198Z,97378.22
2023-01-30T13:46:57.587Z,97376.78
2023-01-30T13:49:42.254Z,97377.00
2023-01-30T13:52:26.913Z,97376.19
2023-01-30T13:55:37.451Z,97372.94
2023-01-30T13:58:10.860Z,97363.13
2023-01-30T14:00:37.699Z,97365.78
2023-01-30T14:03:07.446Z,97359.88
2023-01-30T14:06:00.899Z,97362.53
2023-01-30T14:08:31.600Z,97352.94
2023-01-30T14:10:59.254Z,97359.25
2023-01-30T14:13:27.473Z,97343.16
2023-01-30T14:15:57.828Z,97338.25
2023-01-30T14:18:31.233Z,97344.38
2023-01-30T14:21:20.316Z,97343.34
2023-01-30T14:24:00.270Z,97347.63
2023-01-30T14:26:48.854Z,97339.06
2023-01-30T14:29:37.451Z,97343.78
2023-01-30T14:32:10.087Z,97355.38
2023-01-30T14:34:48.940Z,97361.50
2023-01-30T14:37:26.400Z,97361.72
2023-01-30T14:39:55.648Z,97362.34
2023-01-30T14:42:28.219Z,97359.88
2023-01-30T14:45:15.665Z,97363.34
2023-01-30T14:47:46.081Z,97353.78
2023-01-30T14:50:23.092Z,97355.81
2023-01-30T14:52:56.321Z,97362.94
2023-01-30T14:55:29.446Z,97361.13
2023-01-30T14:58:00.318Z,97361.13
2023-01-30T15:00:32.228Z,97356.81
2023-01-30T15:03:04.430Z,97363.78
2023-01-30T15:05:37.541Z,97359.47
2023-01-30T15:08:09.288Z,97369.25
2023-01-30T15:11:15.583Z,97367.44
2023-01-30T15:14:11.776Z,97369.47
2023-01-30T15:16:44.442Z,97375.19
2023-01-30T15:19:33.152Z,97379.44
2023-01-30T15:22:34.339Z,97381.91
2023-01-30T15:25:13.051Z,97376.81
2023-01-30T15:28:00.885Z,97390.06
2023-01-30T15:30:46.898Z,97380.50
2023-01-30T15:33:29.836Z,97388.44
2023-01-30T15:35:57.747Z,97396.19
2023-01-30T15:38:27.588Z,97393.31
2023-01-30T15:40:56.469Z,97400.25
2023-01-30T15:44:02.460Z,97407.19
2023-01-30T15:46:35.626Z,97402.06
2023-01-30T15:49:22.056Z,97405.13
2023-01-30T15:51:48.887Z,97414.13
2023-01-30T15:54:19.674Z,97416.56
2023-01-30T15:56:49.494Z,97424.31
2023-01-30T15:59:26.282Z,97419.63
2023-01-30T16:02:05.028Z,97413.28
2023-01-30T16:04:32.488Z,97410.44
2023-01-30T16:06:59.310Z,97419.81
2023-01-30T16:09:26.671Z,97428.59
2023-01-30T16:11:53.654Z,97426.31
2023-01-30T16:14:22.734Z,97440.19
2023-01-30T16:17:05.179Z,97440.00
2023-01-30T16:19:34.583Z,97445.91
2023-01-30T16:22:05.307Z,97450.41
2023-01-30T16:24:35.826Z,97446.53
2023-01-30T16:27:06.413Z,97437.53
2023-01-30T16:29:47.165Z,97453.84
2023-01-30T16:32:14.701Z,97449.38
2023-01-30T16:34:41.694Z,97466.91
2023-01-30T16:37:20.641Z,97456.50
2023-01-30T16:40:19.170Z,97449.78
2023-01-30T16:42:57.799Z,97447.13
2023-01-30T16:45:33.875Z,97456.69
2023-01-30T16:48:22.676Z,97451.41
2023-01-30T16:50:59.430Z,97444.25
2023-01-30T16:53:31.942Z,97454.03
2023-01-30T16:56:01.103Z,97455.69
2023-01-30T16:58:32.579Z,97458.94
2023-01-30T17:01:02.101Z,97463.22
2023-01-30T17:03:33.676Z,97451.63
2023-01-30T17:06:02.794Z,97457.91
2023-01-30T17:08:54.210Z,97451.19
2023-01-30T17:11:36.762Z,97464.25
2023-01-30T17:14:21.725Z,97468.72
2023-01-30T17:17:07.765Z,97467.72
2023-01-30T17:19:35.847Z,97461.38
2023-01-30T17:22:06.713Z,97447.50
2023-01-30T17:24:35.565Z,97453.41
2023-01-30T17:27:04.470Z,97460.38
2023-01-30T17:29:47.334Z,97468.94
2023-01-30T17:32:15.813Z,97460.56
2023-01-30T17:34:42.571Z,97459.31
2023-01-30T17:37:18.378Z,97479.13
2023-01-30T17:39:45.346Z,97470.97
2023-01-30T17:42:13.780Z,97464.03
2023-01-30T17:44:41.096Z,97457.72
2023-01-30T17:47:11.647Z,97466.28
2023-01-30T17:49:38.777Z,97473.19
2023-01-30T17:52:06.247Z,97460.97
2023-01-30T17:54:32.960Z,97460.97
2023-01-30T17:57:05.411Z,97460.53
2023-01-30T17:59:32.676Z,97455.25
2023-01-30T18:02:03.174Z,97450.75
2023-01-30T18:04:29.883Z,97444.63
2023-01-30T18:07:04.309Z,97446.28
2023-01-30T18:09:32.436Z,97444.22
2023-01-30T18:11:59.530Z,97439.94
2023-01-30T18:14:26.278Z,97437.28
2023-01-30T18:16:59.897Z,97438.31
2023-01-30T18:19:28.358Z,97428.72
2023-01-30T18:21:55.429Z,97430.38
2023-01-30T18:24:22.259Z,97435.66
2023-01-30T18:26:50.517Z,97433.00
2023-01-30T18:29:17.377Z,97443.81
2023-01-30T18:31:44.443Z,97436.28
2023-01-30T18:34:11.457Z,97435.66
2023-01-30T18:36:38.949Z,97428.72
2023-01-30T18:39:07.091Z,97431.16
2023-01-30T18:41:35.384Z,97437.72
2023-01-30T18:44:04.682Z,97435.25
2023-01-30T18:46:32.508Z,97434.81
2023-01-30T18:48:59.792Z,97430.56
2023-01-30T18:51:33.800Z,97432.41
2023-01-30T18:54:01.900Z,97430.75
2023-01-30T18:56:31.570Z,97432.41
2023-01-30T18:59:02.143Z,97443.41
2023-01-30T19:01:31.962Z,97439.75
2023-01-30T19:04:01.408Z,97439.75
2023-01-30T19:06:29.767Z,97432.81
2023-01-30T19:08:57.498Z,97431.78
2023-01-30T19:11:44.075Z,97424.84
2023-01-30T19:14:10.899Z,97431.19
2023-01-30T19:16:38.789Z,97431.38
2023-01-30T19:19:06.852Z,97433.22
2023-01-30T19:21:35.599Z,97420.16
2023-01-30T19:24:03.968Z,97427.31
2023-01-30T19:26:31.149Z,97438.13
2023-01-30T19:28:57.940Z,97435.28
2023-01-30T19:31:25.662Z,97437.31
2023-01-30T19:33:58.216Z,97452.22
2023-01-30T19:36:27.071Z,97442.41
2023-01-30T19:38:54.352Z,97453.22
2023-01-30T19:41:24.477Z,97445.69
2023-01-30T19:43:53.033Z,97444.66
2023-01-30T19:46:20.731Z,97449.97
2023-01-30T19:48:49.266Z,97466.31
2023-01-30T19:51:22.515Z,97467.31
2023-01-30T19:53:54.466Z,97468.56
2023-01-30T19:56:24.842Z,97463.03
2023-01-30T19:58:53.025Z,97462.22
2023-01-30T20:01:22.465Z,97470.78
2023-01-30T20:03:49.497Z,97464.41
2023-01-30T20:06:21.780Z,97470.31
2023-01-30T20:08:53.420Z,97473.38
2023-01-30T20:11:23.274Z,97468.69
2023-01-30T20:13:50.872Z,97462.97
2023-01-30T20:16:20.627Z,97466.66
2023-01-30T20:19:02.396Z,97467.06
2023-01-30T20:21:30.828Z,97472.00
2023-01-30T20:23:58.346Z,97472.00
2023-01-30T20:26:36.377Z,97463.25
2023-01-30T20:29:04.472Z,97463.25
2023-01-30T20:31:32.237Z,97464.69
2023-01-30T20:34:02.030Z,97468.75
2023-01-30T20:36:29.106Z,97469.56
2023-01-30T20:38:56.534Z,97474.66
2023-01-30T20:41:25.457Z,97478.34
2023-01-30T20:43:56.540Z,97474.25
2023-01-30T20:46:28.933Z,97465.47
2023-01-30T20:48:57.338Z,97475.88
2023-01-30T20:51:32.119Z,97487.50
2023-01-30T20:54:01.928Z,97470.78
2023-01-30T20:56:49.290Z,97489.94
2023-01-30T20:59:18.906Z,97479.34
2023-01-30T21:01:46.611Z,97480.16
2023-01-30T21:04:15.689Z,97476.09
2023-01-30T21:06:46.098Z,97484.84
2023-01-30T21:09:17.190Z,97486.91
2023-01-30T21:11:44.880Z,97505.03
2023-01-30T21:14:11.865Z,97500.16
2023-01-30T21:16:39.422Z,97495.69
2023-01-30T21:19:08.248Z,97485.88
2023-01-30T21:21:39.100Z,97505.47
2023-01-30T21:24:12.388Z,97518.72
2023-01-30T21:26:42.220Z,97518.91
2023-01-30T21:29:09.040Z,97525.03
2023-01-30T21:31:38.061Z,97527.06
2023-01-30T21:34:05.310Z,97526.66
2023-01-30T21:36:32.631Z,97526.25
2023-01-30T21:39:17.864Z,97538.47
2023-01-30T21:42:04.229Z,97532.34
2023-01-30T21:44:37.843Z,97542.97
2023-01-30T21:47:06.548Z,97553.56
2023-01-30T21:49:34.359Z,97547.66
2023-01-30T21:52:01.955Z,97560.50
2023-01-30T21:54:28.642Z,97556.84
2023-01-30T21:56:55.746Z,97567.44
2023-01-30T21:59:23.159Z,97574.38
2023-01-30T22:01:50.291Z,97579.28
2023-01-30T22:04:16.973Z,97577.63
2023-01-30T22:06:44.112Z,97585.19
2023-01-30T22:09:15.322Z,97595.59
2023-01-30T22:11:42.838Z,97602.94
2023-01-30T22:14:13.308Z,97610.66
2023-01-30T22:16:41.666Z,97612.31
2023-01-30T22:19:08.961Z,97601.72
2023-01-30T22:21:39.903Z,97597.22
2023-01-30T22:24:08.903Z,97612.31
2023-01-30T22:26:36.692Z,97613.94
2023-01-30T22:29:05.150Z,97616.59
2023-01-30T22:31:34.900Z,97603.31
2023-01-30T22:34:03.536Z,97602.53
2023-01-30T22:36:33.216Z,97604.97
2023-01-30T22:39:00.247Z,97608.63
2023-01-30T22:41:30.571Z,97614.56
2023-01-30T22:43:59.454Z,97608.63
2023-01-30T22:46:31.932Z,97610.28
2023-01-30T22:49:00.532Z,97620.88
2023-01-30T22:51:30.745Z,97622.50
2023-01-30T22:54:02.116Z,97630.47
2023-01-30T22:56:42.167Z,97633.91
2023-01-30T22:59:09.671Z,97621.69
2023-01-30T23:01:41.735Z,97637.16
2023-01-30T23:04:14.431Z,97629.66
2023-01-30T23:06:42.781Z,97636.78
2023-01-30T23:09:13.525Z,97640.44
2023-01-30T23:11:43.771Z,97642.91
2023-01-30T23:14:16.381Z,97638.41
2023-01-30T23:16:45.030Z,97646.38
2023-01-30T23:19:13.329Z,97647.78
2023-01-30T23:21:45.402Z,97643.31
2023-01-30T23:24:15.253Z,97643.31
2023-01-30T23:26:45.665Z,97653.94
2023-01-30T23:29:15.629Z,97650.44
2023-01-30T23:31:44.347Z,97660.44
2023-01-30T23:34:13.295Z,97655.97
2023-01-30T23:36:40.426Z,97652.28
2023-01-30T23:39:07.041Z,97645.97
2023-01-30T23:41:35.716Z,97644.31
2023-01-30T23:44:02.891Z,97634.75
2023-01-30T23:46:41.171Z,97644.53
2023-01-30T23:49:15.004Z,97654.94
2023-01-30T23:51:44.474Z,97643.72
2023-01-30T23:54:13.410Z,97649.00
2023-01-30T23:56:43.318Z,97643.72
2023-01-30T23:59:10.857Z,97655.97
